Lost River, West Virginia
Current Conditions -  °F | °C
As of 9:15 AM on Thursday 27 Nov 2014 (Local Time) from K8W2 Reporting Station
Overcast Overcast  
Wind Chill: 29°   Ceiling: 200
Heat Index: 29°   Visibility: 0mi
Dew Point: 29°   Wind: 0mph
Humidity: 99%   Direction: NA
Pressure: 30.04"   Gusts: NA
Location:  38.9097°N, 78.8027°W
Report Text: K8W2 271415Z AUTO 00000KT M1/4SM OVC002 M01/M01 A3004 RMK AO1 T10141015
Loading
Personal Weather Stations






























Interactive Weather Map New forecast layout! Learn more

10-Day Weather Forecast

Advertisements
Track Severe Weather on mobile